sensor_id;sensor_type;location;lat;lon;timestamp;pressure;altitude;pressure_sealevel;temperature;humidity
24422;BME280;12600;53.326;-6.298;2022-10-16T00:00:17;99484.00;;;10.50;74.14
24422;BME280;12600;53.326;-6.298;2022-10-16T00:02:46;99483.81;;;10.55;74.00
24422;BME280;12600;53.326;-6.298;2022-10-16T00:05:16;99485.41;;;10.56;73.86
24422;BME280;12600;53.326;-6.298;2022-10-16T00:07:45;99511.88;;;10.43;74.24
24422;BME280;12600;53.326;-6.298;2022-10-16T00:10:14;99497.81;;;10.53;73.75
24422;BME280;12600;53.326;-6.298;2022-10-16T00:12:45;99493.81;;;10.51;73.38
24422;BME280;12600;53.326;-6.298;2022-10-16T00:15:15;99506.91;;;10.57;73.35
24422;BME280;12600;53.326;-6.298;2022-10-16T00:17:44;99516.00;;;10.49;74.27
24422;BME280;12600;53.326;-6.298;2022-10-16T00:20:14;99508.28;;;10.51;74.59
24422;BME280;12600;53.326;-6.298;2022-10-16T00:23:02;99522.59;;;10.48;74.77
24422;BME280;12600;53.326;-6.298;2022-10-16T00:25:32;99510.94;;;10.39;75.24
24422;BME280;12600;53.326;-6.298;2022-10-16T00:28:03;99529.59;;;10.37;75.53
24422;BME280;12600;53.326;-6.298;2022-10-16T00:30:32;99530.59;;;10.32;75.31
24422;BME280;12600;53.326;-6.298;2022-10-16T00:33:02;99538.34;;;10.30;75.83
24422;BME280;12600;53.326;-6.298;2022-10-16T00:35:31;99539.06;;;10.19;75.87
24422;BME280;12600;53.326;-6.298;2022-10-16T00:38:00;99526.06;;;10.16;76.24
24422;BME280;12600;53.326;-6.298;2022-10-16T00:40:29;99544.69;;;10.14;75.74
24422;BME280;12600;53.326;-6.298;2022-10-16T00:42:59;99539.38;;;10.17;75.15
24422;BME280;12600;53.326;-6.298;2022-10-16T00:45:30;99553.34;;;10.16;75.19
24422;BME280;12600;53.326;-6.298;2022-10-16T00:47:59;99548.56;;;10.13;75.21
24422;BME280;12600;53.326;-6.298;2022-10-16T00:50:32;99552.22;;;10.17;74.92
24422;BME280;12600;53.326;-6.298;2022-10-16T00:53:03;99564.00;;;10.08;74.97
24422;BME280;12600;53.326;-6.298;2022-10-16T00:55:32;99559.34;;;10.09;74.86
24422;BME280;12600;53.326;-6.298;2022-10-16T00:58:08;99570.94;;;10.06;74.63
24422;BME280;12600;53.326;-6.298;2022-10-16T01:00:40;99568.03;;;10.02;74.42
24422;BME280;12600;53.326;-6.298;2022-10-16T01:03:25;99569.00;;;10.06;74.41
24422;BME280;12600;53.326;-6.298;2022-10-16T01:06:22;99579.44;;;10.04;74.25
24422;BME280;12600;53.326;-6.298;2022-10-16T01:09:11;99570.03;;;9.93;74.76
24422;BME280;12600;53.326;-6.298;2022-10-16T01:11:52;99576.22;;;10.02;74.37
24422;BME280;12600;53.326;-6.298;2022-10-16T01:14:34;99564.94;;;10.13;74.38
24422;BME280;12600;53.326;-6.298;2022-10-16T01:17:12;99569.53;;;10.00;73.98
24422;BME280;12600;53.326;-6.298;2022-10-16T01:20:06;99564.06;;;10.00;74.07
24422;BME280;12600;53.326;-6.298;2022-10-16T01:22:50;99578.59;;;10.13;73.78
24422;BME280;12600;53.326;-6.298;2022-10-16T01:26:04;99573.94;;;10.13;73.74
24422;BME280;12600;53.326;-6.298;2022-10-16T01:28:42;99576.22;;;10.02;73.60
24422;BME280;12600;53.326;-6.298;2022-10-16T01:31:18;99589.28;;;9.97;73.76
24422;BME280;12600;53.326;-6.298;2022-10-16T01:33:56;99587.88;;;9.91;74.00
24422;BME280;12600;53.326;-6.298;2022-10-16T01:36:39;99588.16;;;9.98;73.19
24422;BME280;12600;53.326;-6.298;2022-10-16T01:39:11;99606.47;;;9.97;73.37
24422;BME280;12600;53.326;-6.298;2022-10-16T01:41:44;99588.94;;;9.98;73.14
24422;BME280;12600;53.326;-6.298;2022-10-16T01:44:19;99613.47;;;10.07;72.54
24422;BME280;12600;53.326;-6.298;2022-10-16T01:46:52;99619.94;;;9.94;72.73
24422;BME280;12600;53.326;-6.298;2022-10-16T01:49:23;99631.81;;;9.98;72.88
24422;BME280;12600;53.326;-6.298;2022-10-16T01:51:57;99640.75;;;10.07;72.42
24422;BME280;12600;53.326;-6.298;2022-10-16T01:54:35;99639.19;;;9.97;72.47
24422;BME280;12600;53.326;-6.298;2022-10-16T01:57:06;99643.53;;;9.98;72.68
24422;BME280;12600;53.326;-6.298;2022-10-16T01:59:44;99646.72;;;10.00;72.68
24422;BME280;12600;53.326;-6.298;2022-10-16T02:02:16;99656.88;;;9.91;73.09
24422;BME280;12600;53.326;-6.298;2022-10-16T02:04:49;99656.72;;;9.96;73.01
24422;BME280;12600;53.326;-6.298;2022-10-16T02:07:22;99644.56;;;9.85;73.37
24422;BME280;12600;53.326;-6.298;2022-10-16T02:09:52;99648.91;;;9.77;73.64
24422;BME280;12600;53.326;-6.298;2022-10-16T02:12:26;99659.81;;;9.77;73.93
24422;BME280;12600;53.326;-6.298;2022-10-16T02:14:57;99674.56;;;9.85;73.67
24422;BME280;12600;53.326;-6.298;2022-10-16T02:17:28;99667.03;;;9.82;74.20
24422;BME280;12600;53.326;-6.298;2022-10-16T02:19:58;99677.66;;;9.75;74.42
24422;BME280;12600;53.326;-6.298;2022-10-16T02:22:32;99674.09;;;9.83;74.25
24422;BME280;12600;53.326;-6.298;2022-10-16T02:25:07;99674.47;;;9.73;73.92
24422;BME280;12600;53.326;-6.298;2022-10-16T02:27:44;99676.06;;;9.74;73.81
24422;BME280;12600;53.326;-6.298;2022-10-16T02:30:23;99681.81;;;9.81;73.96
24422;BME280;12600;53.326;-6.298;2022-10-16T02:32:54;99687.13;;;9.69;73.90
24422;BME280;12600;53.326;-6.298;2022-10-16T02:35:24;99698.66;;;9.83;73.29
24422;BME280;12600;53.326;-6.298;2022-10-16T02:37:55;99706.38;;;9.81;72.89
24422;BME280;12600;53.326;-6.298;2022-10-16T02:40:26;99709.06;;;9.90;72.48
24422;BME280;12600;53.326;-6.298;2022-10-16T02:42:56;99715.78;;;9.92;71.56
24422;BME280;12600;53.326;-6.298;2022-10-16T02:45:26;99714.66;;;9.93;71.41
24422;BME280;12600;53.326;-6.298;2022-10-16T02:47:57;99714.47;;;9.98;70.65
24422;BME280;12600;53.326;-6.298;2022-10-16T02:50:26;99729.88;;;10.03;70.10
24422;BME280;12600;53.326;-6.298;2022-10-16T02:52:55;99742.91;;;9.97;69.85
24422;BME280;12600;53.326;-6.298;2022-10-16T02:55:25;99736.00;;;9.91;69.75
24422;BME280;12600;53.326;-6.298;2022-10-16T02:57:55;99734.25;;;9.95;69.18
24422;BME280;12600;53.326;-6.298;2022-10-16T03:00:26;99724.94;;;9.96;68.40
24422;BME280;12600;53.326;-6.298;2022-10-16T03:02:56;99739.16;;;10.02;67.41
24422;BME280;12600;53.326;-6.298;2022-10-16T03:05:25;99744.13;;;10.08;67.28
24422;BME280;12600;53.326;-6.298;2022-10-16T03:07:54;99758.13;;;9.98;67.22
24422;BME280;12600;53.326;-6.298;2022-10-16T03:10:24;99746.06;;;10.08;66.08
24422;BME280;12600;53.326;-6.298;2022-10-16T03:12:53;99758.25;;;10.11;66.08
24422;BME280;12600;53.326;-6.298;2022-10-16T03:15:22;99757.13;;;10.12;65.55
24422;BME280;12600;53.326;-6.298;2022-10-16T03:17:53;99759.84;;;10.12;65.31
24422;BME280;12600;53.326;-6.298;2022-10-16T03:20:22;99789.72;;;10.08;65.50
24422;BME280;12600;53.326;-6.298;2022-10-16T03:22:52;99773.03;;;10.01;65.59
24422;BME280;12600;53.326;-6.298;2022-10-16T03:25:21;99775.16;;;9.95;66.41
24422;BME280;12600;53.326;-6.298;2022-10-16T03:27:50;99784.19;;;9.87;67.15
24422;BME280;12600;53.326;-6.298;2022-10-16T03:30:19;99788.53;;;9.79;67.96
24422;BME280;12600;53.326;-6.298;2022-10-16T03:32:49;99792.69;;;9.77;68.37
24422;BME280;12600;53.326;-6.298;2022-10-16T03:35:24;99789.81;;;9.73;68.77
24422;BME280;12600;53.326;-6.298;2022-10-16T03:37:53;99800.41;;;9.75;68.63
24422;BME280;12600;53.326;-6.298;2022-10-16T03:40:22;99803.78;;;9.72;68.94
24422;BME280;12600;53.326;-6.298;2022-10-16T03:42:52;99790.34;;;9.58;69.55
24422;BME280;12600;53.326;-6.298;2022-10-16T03:45:23;99816.16;;;9.61;69.37
24422;BME280;12600;53.326;-6.298;2022-10-16T03:47:52;99830.28;;;9.63;69.34
24422;BME280;12600;53.326;-6.298;2022-10-16T03:50:22;99847.59;;;9.58;69.46
24422;BME280;12600;53.326;-6.298;2022-10-16T03:52:52;99838.75;;;9.70;69.24
24422;BME280;12600;53.326;-6.298;2022-10-16T03:55:21;99849.84;;;9.56;69.40
24422;BME280;12600;53.326;-6.298;2022-10-16T03:57:50;99836.22;;;9.65;69.19
24422;BME280;12600;53.326;-6.298;2022-10-16T04:00:19;99841.81;;;9.68;69.08
24422;BME280;12600;53.326;-6.298;2022-10-16T04:02:49;99851.13;;;9.59;69.14
24422;BME280;12600;53.326;-6.298;2022-10-16T04:05:18;99860.59;;;9.61;68.93
24422;BME280;12600;53.326;-6.298;2022-10-16T04:07:48;99859.00;;;9.51;69.04
24422;BME280;12600;53.326;-6.298;2022-10-16T04:10:18;99875.03;;;9.53;68.99
24422;BME280;12600;53.326;-6.298;2022-10-16T04:12:47;99880.00;;;9.51;69.21
24422;BME280;12600;53.326;-6.298;2022-10-16T04:15:17;99884.66;;;9.59;69.01
24422;BME280;12600;53.326;-6.298;2022-10-16T04:17:46;99884.66;;;9.50;69.08
24422;BME280;12600;53.326;-6.298;2022-10-16T04:20:15;99892.69;;;9.56;68.70
24422;BME280;12600;53.326;-6.298;2022-10-16T04:22:44;99917.72;;;9.58;68.82
24422;BME280;12600;53.326;-6.298;2022-10-16T04:25:15;99912.56;;;9.56;68.70
24422;BME280;12600;53.326;-6.298;2022-10-16T04:27:45;99912.72;;;9.60;68.59
24422;BME280;12600;53.326;-6.298;2022-10-16T04:30:14;99923.97;;;9.58;68.55
24422;BME280;12600;53.326;-6.298;2022-10-16T04:32:43;99933.94;;;9.63;68.41
24422;BME280;12600;53.326;-6.298;2022-10-16T04:35:16;99944.19;;;9.66;68.46
24422;BME280;12600;53.326;-6.298;2022-10-16T04:37:45;99949.78;;;9.61;68.57
24422;BME280;12600;53.326;-6.298;2022-10-16T04:40:16;99961.81;;;9.60;68.72
24422;BME280;12600;53.326;-6.298;2022-10-16T04:42:45;99960.88;;;9.64;68.43
24422;BME280;12600;53.326;-6.298;2022-10-16T04:45:15;99979.63;;;9.66;68.27
24422;BME280;12600;53.326;-6.298;2022-10-16T04:47:44;99962.47;;;9.57;68.42
24422;BME280;12600;53.326;-6.298;2022-10-16T04:50:13;99989.56;;;9.62;68.48
24422;BME280;12600;53.326;-6.298;2022-10-16T04:53:01;99988.78;;;9.70;68.15
24422;BME280;12600;53.326;-6.298;2022-10-16T04:55:32;99983.50;;;9.65;68.47
24422;BME280;12600;53.326;-6.298;2022-10-16T04:58:01;99969.53;;;9.58;68.05
24422;BME280;12600;53.326;-6.298;2022-10-16T05:00:31;99984.28;;;9.57;68.12
24422;BME280;12600;53.326;-6.298;2022-10-16T05:03:00;99992.28;;;9.53;68.37
24422;BME280;12600;53.326;-6.298;2022-10-16T05:05:29;99997.75;;;9.62;68.08
24422;BME280;12600;53.326;-6.298;2022-10-16T05:07:58;99983.81;;;9.55;68.01
24422;BME280;12600;53.326;-6.298;2022-10-16T05:10:28;99995.53;;;9.64;67.77
24422;BME280;12600;53.326;-6.298;2022-10-16T05:12:59;99985.75;;;9.63;68.19
24422;BME280;12600;53.326;-6.298;2022-10-16T05:15:28;99985.56;;;9.68;67.76
24422;BME280;12600;53.326;-6.298;2022-10-16T05:17:58;99973.53;;;9.69;67.61
24422;BME280;12600;53.326;-6.298;2022-10-16T05:20:28;99977.91;;;9.78;67.86
24422;BME280;12600;53.326;-6.298;2022-10-16T05:22:57;99976.28;;;9.86;67.61
24422;BME280;12600;53.326;-6.298;2022-10-16T05:25:26;99982.56;;;9.87;67.53
24422;BME280;12600;53.326;-6.298;2022-10-16T05:27:56;99989.28;;;9.89;67.37
24422;BME280;12600;53.326;-6.298;2022-10-16T05:30:26;99982.84;;;9.94;67.17
24422;BME280;12600;53.326;-6.298;2022-10-16T05:32:56;100003.59;;;10.03;67.18
24422;BME280;12600;53.326;-6.298;2022-10-16T05:35:25;99990.41;;;10.05;67.02
24422;BME280;12600;53.326;-6.298;2022-10-16T05:37:54;100003.91;;;10.11;66.87
24422;BME280;12600;53.326;-6.298;2022-10-16T05:40:23;99995.06;;;9.96;66.99
24422;BME280;12600;53.326;-6.298;2022-10-16T05:42:55;100003.06;;;10.01;67.00
24422;BME280;12600;53.326;-6.298;2022-10-16T05:45:26;99998.59;;;10.05;66.63
24422;BME280;12600;53.326;-6.298;2022-10-16T05:47:55;100011.59;;;10.17;66.59
24422;BME280;12600;53.326;-6.298;2022-10-16T05:50:24;100017.06;;;10.08;66.15
24422;BME280;12600;53.326;-6.298;2022-10-16T05:52:54;100017.56;;;10.11;66.16
24422;BME280;12600;53.326;-6.298;2022-10-16T05:55:23;100014.31;;;10.08;66.45
24422;BME280;12600;53.326;-6.298;2022-10-16T05:57:54;100020.56;;;10.18;66.19
24422;BME280;12600;53.326;-6.298;2022-10-16T06:00:23;100026.84;;;10.09;66.58
24422;BME280;12600;53.326;-6.298;2022-10-16T06:02:54;100029.28;;;10.11;66.75
24422;BME280;12600;53.326;-6.298;2022-10-16T06:05:23;100046.94;;;10.14;66.84
24422;BME280;12600;53.326;-6.298;2022-10-16T06:07:52;100043.91;;;10.24;66.68
24422;BME280;12600;53.326;-6.298;2022-10-16T06:10:22;100040.66;;;10.22;66.84
24422;BME280;12600;53.326;-6.298;2022-10-16T06:12:51;100049.03;;;10.34;66.52
24422;BME280;12600;53.326;-6.298;2022-10-16T06:15:20;100053.53;;;10.30;66.83
24422;BME280;12600;53.326;-6.298;2022-10-16T06:17:49;100056.28;;;10.30;66.68
24422;BME280;12600;53.326;-6.298;2022-10-16T06:20:20;100041.50;;;10.31;66.78
24422;BME280;12600;53.326;-6.298;2022-10-16T06:22:49;100062.38;;;10.35;66.88
24422;BME280;12600;53.326;-6.298;2022-10-16T06:25:18;100051.75;;;10.34;66.79
24422;BME280;12600;53.326;-6.298;2022-10-16T06:27:47;100055.78;;;10.28;66.81
24422;BME280;12600;53.326;-6.298;2022-10-16T06:30:17;100064.00;;;10.28;66.91
24422;BME280;12600;53.326;-6.298;2022-10-16T06:32:46;100064.44;;;10.21;66.95
24422;BME280;12600;53.326;-6.298;2022-10-16T06:35:16;100071.69;;;10.26;66.98
24422;BME280;12600;53.326;-6.298;2022-10-16T06:37:46;100075.19;;;10.18;67.06
24422;BME280;12600;53.326;-6.298;2022-10-16T06:40:16;100059.13;;;10.07;67.06
24422;BME280;12600;53.326;-6.298;2022-10-16T06:42:45;100093.50;;;10.26;66.99
24422;BME280;12600;53.326;-6.298;2022-10-16T06:45:14;100092.06;;;10.20;66.99
24422;BME280;12600;53.326;-6.298;2022-10-16T06:47:43;100099.25;;;10.16;66.97
24422;BME280;12600;53.326;-6.298;2022-10-16T06:50:13;100099.75;;;10.18;67.06
24422;BME280;12600;53.326;-6.298;2022-10-16T06:52:42;100116.31;;;10.21;67.27
24422;BME280;12600;53.326;-6.298;2022-10-16T06:55:13;100129.94;;;10.13;67.60
24422;BME280;12600;53.326;-6.298;2022-10-16T06:57:43;100131.38;;;10.10;67.53
24422;BME280;12600;53.326;-6.298;2022-10-16T07:00:12;100145.25;;;10.22;67.14
24422;BME280;12600;53.326;-6.298;2022-10-16T07:02:42;100151.97;;;10.25;67.39
24422;BME280;12600;53.326;-6.298;2022-10-16T07:05:11;100160.34;;;10.28;67.09
24422;BME280;12600;53.326;-6.298;2022-10-16T07:07:40;100166.94;;;10.27;67.06
24422;BME280;12600;53.326;-6.298;2022-10-16T07:10:09;100165.31;;;10.26;67.09
24422;BME280;12600;53.326;-6.298;2022-10-16T07:12:40;100174.63;;;10.25;67.00
24422;BME280;12600;53.326;-6.298;2022-10-16T07:15:09;100176.06;;;10.23;66.91
24422;BME280;12600;53.326;-6.298;2022-10-16T07:17:40;100188.72;;;10.19;67.02
24422;BME280;12600;53.326;-6.298;2022-10-16T07:20:10;100194.19;;;10.19;67.09
24422;BME280;12600;53.326;-6.298;2022-10-16T07:22:39;100196.72;;;10.15;67.20
24422;BME280;12600;53.326;-6.298;2022-10-16T07:25:09;100199.59;;;10.10;67.60
24422;BME280;12600;53.326;-6.298;2022-10-16T07:27:40;100215.38;;;10.13;67.62
24422;BME280;12600;53.326;-6.298;2022-10-16T07:30:10;100216.16;;;10.14;67.59
24422;BME280;12600;53.326;-6.298;2022-10-16T07:32:39;100226.28;;;10.13;68.23
24422;BME280;12600;53.326;-6.298;2022-10-16T07:35:09;100229.78;;;10.05;68.38
24422;BME280;12600;53.326;-6.298;2022-10-16T07:37:38;100231.56;;;10.09;68.48
24422;BME280;12600;53.326;-6.298;2022-10-16T07:40:09;100249.56;;;10.11;68.66
24422;BME280;12600;53.326;-6.298;2022-10-16T07:42:40;100256.13;;;10.09;68.61
24422;BME280;12600;53.326;-6.298;2022-10-16T07:45:09;100262.94;;;10.21;68.59
24422;BME280;12600;53.326;-6.298;2022-10-16T07:47:39;100260.50;;;10.19;68.45
24422;BME280;12600;53.326;-6.298;2022-10-16T07:50:09;100268.28;;;10.34;68.19
24422;BME280;12600;53.326;-6.298;2022-10-16T07:52:38;100268.47;;;10.38;68.39
24422;BME280;12600;53.326;-6.298;2022-10-16T07:55:08;100287.16;;;10.53;68.11
24422;BME280;12600;53.326;-6.298;2022-10-16T07:57:39;100292.94;;;10.60;67.91
24422;BME280;12600;53.326;-6.298;2022-10-16T08:00:10;100293.44;;;10.71;67.69
24422;BME280;12600;53.326;-6.298;2022-10-16T08:02:41;100300.84;;;10.71;67.82
24422;BME280;12600;53.326;-6.298;2022-10-16T08:05:10;100313.56;;;10.84;67.63
24422;BME280;12600;53.326;-6.298;2022-10-16T08:07:40;100311.19;;;10.91;67.34
24422;BME280;12600;53.326;-6.298;2022-10-16T08:10:16;100311.34;;;10.95;66.77
24422;BME280;12600;53.326;-6.298;2022-10-16T08:12:47;100318.25;;;11.09;66.89
24422;BME280;12600;53.326;-6.298;2022-10-16T08:15:17;100305.25;;;11.15;66.95
24422;BME280;12600;53.326;-6.298;2022-10-16T08:17:55;100308.94;;;11.19;66.77
24422;BME280;12600;53.326;-6.298;2022-10-16T08:20:25;100302.00;;;11.21;66.62
24422;BME280;12600;53.326;-6.298;2022-10-16T08:22:55;100300.25;;;11.26;66.81
24422;BME280;12600;53.326;-6.298;2022-10-16T08:25:26;100290.75;;;11.32;66.24
24422;BME280;12600;53.326;-6.298;2022-10-16T08:27:56;100298.31;;;11.43;66.53
24422;BME280;12600;53.326;-6.298;2022-10-16T08:30:26;100295.41;;;11.48;66.52
24422;BME280;12600;53.326;-6.298;2022-10-16T08:32:55;100299.91;;;11.53;66.60
24422;BME280;12600;53.326;-6.298;2022-10-16T08:35:26;100298.44;;;11.64;66.77
24422;BME280;12600;53.326;-6.298;2022-10-16T08:37:55;100301.97;;;11.73;66.56
24422;BME280;12600;53.326;-6.298;2022-10-16T08:40:27;100298.44;;;11.82;66.47
24422;BME280;12600;53.326;-6.298;2022-10-16T08:43:19;100295.97;;;11.97;66.60
24422;BME280;12600;53.326;-6.298;2022-10-16T08:46:15;100303.00;;;12.16;66.41
24422;BME280;12600;53.326;-6.298;2022-10-16T08:48:51;100305.88;;;12.28;65.55
24422;BME280;12600;53.326;-6.298;2022-10-16T08:51:23;100309.50;;;12.41;65.28
24422;BME280;12600;53.326;-6.298;2022-10-16T08:53:56;100311.06;;;12.50;65.32
24422;BME280;12600;53.326;-6.298;2022-10-16T08:56:26;100318.28;;;12.55;63.99
24422;BME280;12600;53.326;-6.298;2022-10-16T08:58:58;100309.69;;;12.65;64.81
24422;BME280;12600;53.326;-6.298;2022-10-16T09:01:38;100321.56;;;12.78;65.19
24422;BME280;12600;53.326;-6.298;2022-10-16T09:04:48;100323.44;;;12.86;64.37
24422;BME280;12600;53.326;-6.298;2022-10-16T09:07:30;100320.75;;;12.98;65.30
24422;BME280;12600;53.326;-6.298;2022-10-16T09:10:19;100319.78;;;13.03;64.49
24422;BME280;12600;53.326;-6.298;2022-10-16T09:12:59;100321.66;;;13.11;65.05
24422;BME280;12600;53.326;-6.298;2022-10-16T09:15:39;100336.13;;;13.20;64.62
24422;BME280;12600;53.326;-6.298;2022-10-16T09:18:15;100339.94;;;13.28;64.46
24422;BME280;12600;53.326;-6.298;2022-10-16T09:20:53;100329.09;;;13.31;63.89
24422;BME280;12600;53.326;-6.298;2022-10-16T09:23:27;100340.56;;;13.33;63.16
24422;BME280;12600;53.326;-6.298;2022-10-16T09:25:58;100330.59;;;13.29;63.34
24422;BME280;12600;53.326;-6.298;2022-10-16T09:28:28;100347.47;;;13.39;62.83
24422;BME280;12600;53.326;-6.298;2022-10-16T09:30:58;100355.19;;;13.37;62.87
24422;BME280;12600;53.326;-6.298;2022-10-16T09:33:33;100343.31;;;13.33;63.21
24422;BME280;12600;53.326;-6.298;2022-10-16T09:36:04;100361.31;;;13.43;62.20
24422;BME280;12600;53.326;-6.298;2022-10-16T09:38:36;100366.38;;;13.53;62.78
24422;BME280;12600;53.326;-6.298;2022-10-16T09:41:19;100369.28;;;13.57;62.16
24422;BME280;12600;53.326;-6.298;2022-10-16T09:43:53;100368.41;;;13.65;62.73
24422;BME280;12600;53.326;-6.298;2022-10-16T09:46:29;100374.47;;;13.70;62.16
24422;BME280;12600;53.326;-6.298;2022-10-16T09:49:01;100361.53;;;13.71;61.74
24422;BME280;12600;53.326;-6.298;2022-10-16T09:51:33;100359.53;;;13.80;61.53
24422;BME280;12600;53.326;-6.298;2022-10-16T09:54:14;100353.81;;;13.85;61.62
24422;BME280;12600;53.326;-6.298;2022-10-16T09:56:44;100365.19;;;13.96;61.92
24422;BME280;12600;53.326;-6.298;2022-10-16T09:59:19;100365.75;;;14.02;61.94
24422;BME280;12600;53.326;-6.298;2022-10-16T10:01:54;100374.06;;;14.14;61.75
24422;BME280;12600;53.326;-6.298;2022-10-16T10:04:24;100385.28;;;14.21;61.81
24422;BME280;12600;53.326;-6.298;2022-10-16T10:06:56;100379.91;;;14.24;60.82
24422;BME280;12600;53.326;-6.298;2022-10-16T10:09:37;100365.59;;;14.31;61.53
24422;BME280;12600;53.326;-6.298;2022-10-16T10:12:19;100370.19;;;14.39;61.09
24422;BME280;12600;53.326;-6.298;2022-10-16T10:14:55;100370.19;;;14.39;60.93
24422;BME280;12600;53.326;-6.298;2022-10-16T10:17:27;100347.53;;;14.30;61.40
24422;BME280;12600;53.326;-6.298;2022-10-16T10:19:59;100357.88;;;14.45;60.85
24422;BME280;12600;53.326;-6.298;2022-10-16T10:22:38;100336.88;;;14.41;61.17
24422;BME280;12600;53.326;-6.298;2022-10-16T10:25:22;100330.91;;;14.39;61.23
24422;BME280;12600;53.326;-6.298;2022-10-16T10:28:08;100356.72;;;14.46;60.92
24422;BME280;12600;53.326;-6.298;2022-10-16T10:30:44;100368.88;;;14.45;61.33
24422;BME280;12600;53.326;-6.298;2022-10-16T10:33:28;100355.31;;;14.40;61.24
24422;BME280;12600;53.326;-6.298;2022-10-16T10:36:15;100337.22;;;14.39;61.29
24422;BME280;12600;53.326;-6.298;2022-10-16T10:38:50;100337.91;;;14.36;61.10
24422;BME280;12600;53.326;-6.298;2022-10-16T10:41:55;100358.63;;;14.34;59.97
24422;BME280;12600;53.326;-6.298;2022-10-16T10:44:47;100363.78;;;14.35;60.07
24422;BME280;12600;53.326;-6.298;2022-10-16T10:47:32;100366.88;;;14.34;59.97
24422;BME280;12600;53.326;-6.298;2022-10-16T10:50:18;100368.34;;;14.31;60.12
24422;BME280;12600;53.326;-6.298;2022-10-16T10:52:58;100365.59;;;14.31;59.82
24422;BME280;12600;53.326;-6.298;2022-10-16T10:55:39;100366.75;;;14.30;60.07
24422;BME280;12600;53.326;-6.298;2022-10-16T10:58:43;100370.97;;;14.27;58.99
24422;BME280;12600;53.326;-6.298;2022-10-16T11:01:26;100351.81;;;14.07;58.98
24422;BME280;12600;53.326;-6.298;2022-10-16T11:04:20;100392.63;;;14.29;58.62
24422;BME280;12600;53.326;-6.298;2022-10-16T11:06:57;100374.31;;;14.21;58.23
24422;BME280;12600;53.326;-6.298;2022-10-16T11:09:31;100371.50;;;14.09;58.10
24422;BME280;12600;53.326;-6.298;2022-10-16T11:12:09;100377.38;;;14.19;58.37
24422;BME280;12600;53.326;-6.298;2022-10-16T11:14:46;100380.47;;;14.18;58.21
24422;BME280;12600;53.326;-6.298;2022-10-16T11:17:21;100384.34;;;14.17;58.28
24422;BME280;12600;53.326;-6.298;2022-10-16T11:19:58;100391.53;;;14.09;57.29
24422;BME280;12600;53.326;-6.298;2022-10-16T11:22:36;100372.28;;;13.97;57.06
24422;BME280;12600;53.326;-6.298;2022-10-16T11:25:18;100389.47;;;14.06;56.77
24422;BME280;12600;53.326;-6.298;2022-10-16T11:27:54;100395.22;;;14.13;57.46
24422;BME280;12600;53.326;-6.298;2022-10-16T11:30:28;100395.34;;;14.17;57.60
24422;BME280;12600;53.326;-6.298;2022-10-16T11:33:05;100377.94;;;14.13;57.61
24422;BME280;12600;53.326;-6.298;2022-10-16T11:35:44;100398.09;;;14.17;57.41
24422;BME280;12600;53.326;-6.298;2022-10-16T11:38:27;100401.53;;;14.14;56.48
24422;BME280;12600;53.326;-6.298;2022-10-16T11:41:03;100393.75;;;14.16;57.31
24422;BME280;12600;53.326;-6.298;2022-10-16T11:43:41;100396.84;;;14.14;57.20
24422;BME280;12600;53.326;-6.298;2022-10-16T11:46:15;100362.19;;;13.89;56.95
24422;BME280;12600;53.326;-6.298;2022-10-16T11:48:50;100389.72;;;14.13;57.38
24422;BME280;12600;53.326;-6.298;2022-10-16T11:51:31;100389.25;;;14.11;56.91
24422;BME280;12600;53.326;-6.298;2022-10-16T11:54:18;100382.28;;;14.14;57.24
24422;BME280;12600;53.326;-6.298;2022-10-16T11:56:53;100376.34;;;14.12;56.90
24422;BME280;12600;53.326;-6.298;2022-10-16T11:59:30;100371.75;;;14.16;56.91
24422;BME280;12600;53.326;-6.298;2022-10-16T12:02:36;100370.84;;;14.12;56.60
24422;BME280;12600;53.326;-6.298;2022-10-16T12:05:21;100369.47;;;14.18;56.64
24422;BME280;12600;53.326;-6.298;2022-10-16T12:08:02;100352.06;;;14.14;56.49
24422;BME280;12600;53.326;-6.298;2022-10-16T12:10:35;100354.59;;;14.19;56.85
24422;BME280;12600;53.326;-6.298;2022-10-16T12:13:32;100351.13;;;14.10;56.22
24422;BME280;12600;53.326;-6.298;2022-10-16T12:16:20;100334.63;;;13.97;57.09
24422;BME280;12600;53.326;-6.298;2022-10-16T12:18:50;100348.13;;;14.03;56.78
24422;BME280;12600;53.326;-6.298;2022-10-16T12:21:32;100339.00;;;14.11;56.07
24422;BME280;12600;53.326;-6.298;2022-10-16T12:24:03;100325.50;;;14.06;55.57
24422;BME280;12600;53.326;-6.298;2022-10-16T12:26:38;100338.78;;;14.16;55.35
24422;BME280;12600;53.326;-6.298;2022-10-16T12:29:14;100332.84;;;14.14;54.81
24422;BME280;12600;53.326;-6.298;2022-10-16T12:31:51;100343.13;;;14.17;55.14
24422;BME280;12600;53.326;-6.298;2022-10-16T12:34:29;100341.84;;;14.02;54.71
24422;BME280;12600;53.326;-6.298;2022-10-16T12:37:11;100348.38;;;13.97;55.15
24422;BME280;12600;53.326;-6.298;2022-10-16T12:39:41;100303.41;;;13.69;55.24
24422;BME280;12600;53.326;-6.298;2022-10-16T12:42:31;100347.16;;;13.86;55.42
24422;BME280;12600;53.326;-6.298;2022-10-16T12:45:12;100334.59;;;13.85;55.28
24422;BME280;12600;53.326;-6.298;2022-10-16T12:47:52;100342.06;;;13.97;55.46
24422;BME280;12600;53.326;-6.298;2022-10-16T12:50:30;100341.94;;;13.93;54.97
24422;BME280;12600;53.326;-6.298;2022-10-16T12:53:01;100329.09;;;13.85;54.27
24422;BME280;12600;53.326;-6.298;2022-10-16T12:55:44;100340.34;;;13.92;54.08
24422;BME280;12600;53.326;-6.298;2022-10-16T12:58:42;100323.66;;;13.97;54.53
24422;BME280;12600;53.326;-6.298;2022-10-16T13:01:31;100324.56;;;14.02;53.82
24422;BME280;12600;53.326;-6.298;2022-10-16T13:04:22;100305.78;;;13.91;54.96
24422;BME280;12600;53.326;-6.298;2022-10-16T13:07:15;100307.84;;;13.94;54.50
24422;BME280;12600;53.326;-6.298;2022-10-16T13:10:03;100303.81;;;13.92;54.95
24422;BME280;12600;53.326;-6.298;2022-10-16T13:13:07;100292.25;;;13.86;55.13
24422;BME280;12600;53.326;-6.298;2022-10-16T13:16:07;100287.78;;;13.82;54.74
24422;BME280;12600;53.326;-6.298;2022-10-16T13:18:49;100285.41;;;13.80;54.79
24422;BME280;12600;53.326;-6.298;2022-10-16T13:21:36;100275.88;;;13.78;54.96
24422;BME280;12600;53.326;-6.298;2022-10-16T13:24:21;100271.28;;;13.69;54.93